Time;durP1;ratioP1;P1;durP2;ratioP2;P2;SDS_P1;SDS_P2;PMS_P1;PMS_P2;Temp;Humidity;BMP_temperature;BMP_pressure;BME280_temperature;BME280_humidity;BME280_pressure;Samples;Min_cycle;Max_cycle;Signal;HPM_P1;HPM_P2
2021/09/01 00:02:06;;;;;;;14.20;5.32;;;;;;;14.97;84.46;102619.03;10456833;28;20527;-78
2021/09/01 00:07:08;;;;;;;15.93;5.43;;;;;;;14.90;83.76;102624.97;10456640;28;20053;-77
2021/09/01 00:12:10;;;;;;;11.85;4.72;;;;;;;14.88;85.30;102618.84;10455756;28;20068;-79
2021/09/01 00:17:11;;;;;;;16.75;5.57;;;;;;;14.82;83.78;102626.50;10455866;28;20049;-78
2021/09/01 00:22:13;;;;;;;15.00;4.72;;;;;;;14.87;83.62;102617.06;10456324;28;20053;-78
2021/09/01 00:27:14;;;;;;;16.17;5.28;;;;;;;14.89;83.94;102624.94;10455127;28;20045;-78
2021/09/01 00:32:16;;;;;;;12.75;4.28;;;;;;;14.81;83.61;102629.94;10455935;28;20064;-78
2021/09/01 00:37:17;;;;;;;13.40;4.90;;;;;;;14.81;84.29;102628.22;10455081;28;20493;-78
2021/09/01 00:42:19;;;;;;;13.27;4.93;;;;;;;14.85;84.45;102626.56;10455558;28;20061;-78
2021/09/01 00:47:22;;;;;;;9.45;4.65;;;;;;;14.75;84.01;102619.38;10442105;28;20394;-78
2021/09/01 00:52:24;;;;;;;14.13;4.30;;;;;;;14.80;83.84;102620.34;10454280;28;20055;-78
2021/09/01 00:57:26;;;;;;;12.05;4.38;;;;;;;14.80;84.00;102620.34;10456457;28;20478;-79
2021/09/01 01:02:27;;;;;;;7.03;4.15;;;;;;;14.72;85.92;102625.38;10455385;28;20056;-78
2021/09/01 01:07:29;;;;;;;11.98;4.68;;;;;;;14.69;85.99;102619.19;10454455;28;20053;-78
2021/09/01 01:12:32;;;;;;;17.83;5.18;;;;;;;14.68;86.74;102626.13;10456531;28;20049;-79
2021/09/01 01:17:34;;;;;;;16.00;4.82;;;;;;;14.55;87.65;102617.09;10454489;28;20077;-78
2021/09/01 01:22:35;;;;;;;9.48;3.65;;;;;;;14.60;86.81;102621.56;10454491;28;20072;-78
2021/09/01 01:27:38;;;;;;;15.88;4.85;;;;;;;14.64;84.77;102629.50;10455816;28;20374;-77
2021/09/01 01:32:42;;;;;;;14.20;4.85;;;;;;;14.57;86.82;102633.63;10453972;28;20144;-78
2021/09/01 01:37:44;;;;;;;11.63;4.90;;;;;;;14.54;86.60;102622.28;10453153;28;20052;-78
2021/09/01 01:42:49;;;;;;;13.80;4.82;;;;;;;14.54;87.15;102633.56;10455436;28;20061;-78
2021/09/01 01:47:51;;;;;;;13.02;4.38;;;;;;;14.56;84.07;102620.56;10454143;28;20057;-77
2021/09/01 01:52:52;;;;;;;11.55;5.03;;;;;;;14.62;83.00;102619.84;10454093;28;20382;-77
2021/09/01 01:57:54;;;;;;;16.40;4.88;;;;;;;14.61;84.51;102624.19;10453239;28;20052;-77
2021/09/01 02:02:56;;;;;;;19.05;6.22;;;;;;;14.63;81.46;102622.50;10456632;28;20083;-78
2021/09/01 02:07:57;;;;;;;13.20;4.78;;;;;;;14.60;82.65;102631.97;10460646;28;20099;-78
2021/09/01 02:12:59;;;;;;;14.10;5.25;;;;;;;14.57;82.82;102625.81;10461005;28;20052;-77
2021/09/01 02:18:01;;;;;;;14.57;5.35;;;;;;;14.60;79.74;102622.44;10472630;28;20094;-77
2021/09/01 02:23:02;;;;;;;16.42;4.43;;;;;;;14.54;81.20;102624.88;10459388;28;20056;-76
2021/09/01 02:28:04;;;;;;;12.27;4.57;;;;;;;14.60;79.94;102624.16;10460121;28;20049;-78
2021/09/01 02:33:05;;;;;;;9.23;4.50;;;;;;;14.55;78.80;102630.13;10460274;28;20064;-78
2021/09/01 02:38:12;;;;;;;12.40;4.97;;;;;;;14.52;80.38;102622.25;10459853;28;20045;-78
2021/09/01 02:43:14;;;;;;;11.80;4.88;;;;;;;14.53;78.41;102613.56;10460158;28;20065;-78
2021/09/01 02:48:15;;;;;;;10.27;4.55;;;;;;;14.61;77.73;102612.91;10459605;28;20049;-78
2021/09/01 02:53:17;;;;;;;11.23;4.85;;;;;;;14.53;78.17;102615.31;10458877;28;20057;-78
2021/09/01 02:58:18;;;;;;;11.02;4.60;;;;;;;14.54;78.00;102619.66;10459813;28;20048;-78
2021/09/01 03:03:20;;;;;;;9.75;3.95;;;;;;;14.52;78.29;102618.72;10459838;28;20151;-78
2021/09/01 03:08:22;;;;;;;14.00;4.78;;;;;;;14.49;79.05;102618.66;10460273;28;20115;-78
2021/09/01 03:13:23;;;;;;;12.43;4.65;;;;;;;14.49;79.56;102616.06;10458368;28;20402;-78
2021/09/01 03:18:25;;;;;;;16.77;5.28;;;;;;;14.47;80.86;102622.94;10459468;28;20049;-77
2021/09/01 03:23:26;;;;;;;9.05;4.15;;;;;;;14.42;80.21;102621.91;10458028;28;20072;-77
2021/09/01 03:28:28;;;;;;;8.00;3.95;;;;;;;14.36;79.33;102622.63;10457616;28;20053;-76
2021/09/01 03:33:29;;;;;;;8.80;4.18;;;;;;;14.38;80.55;102622.66;10458806;28;20064;-78
2021/09/01 03:38:31;;;;;;;7.75;4.97;;;;;;;14.38;78.90;102615.72;10457275;28;20527;-76
2021/09/01 03:43:33;;;;;;;14.70;4.20;;;;;;;14.36;80.40;102621.75;10457307;28;20107;-77
2021/09/01 03:48:35;;;;;;;8.32;4.18;;;;;;;14.31;81.51;102612.06;10458220;28;20140;-78
2021/09/01 03:53:36;;;;;;;11.35;4.43;;;;;;;14.36;84.02;102621.75;10455953;28;20048;-78
2021/09/01 03:58:38;;;;;;;20.42;5.20;;;;;;;14.33;83.78;102623.41;10456423;28;20045;-78
2021/09/01 04:03:39;;;;;;;14.07;5.28;;;;;;;14.21;83.60;102615.25;10443153;28;20052;-78
2021/09/01 04:08:41;;;;;;;14.93;5.00;;;;;;;14.26;85.19;102631.88;10456745;28;20060;-78
2021/09/01 04:13:43;;;;;;;10.75;4.30;;;;;;;14.22;86.25;102632.63;10456394;28;20127;-78
2021/09/01 04:18:44;;;;;;;11.38;5.07;;;;;;;14.15;83.81;102624.59;10457926;28;20053;-78
2021/09/01 04:23:46;;;;;;;8.00;4.30;;;;;;;14.20;86.06;102630.81;10456246;28;20063;-78
2021/09/01 04:28:48;;;;;;;14.30;4.75;;;;;;;14.13;86.65;102623.69;10457307;28;20068;-79
2021/09/01 04:33:49;;;;;;;17.63;5.35;;;;;;;14.12;85.30;102637.50;10456716;28;20063;-78
2021/09/01 04:38:51;;;;;;;9.40;4.82;;;;;;;14.10;85.41;102637.47;10456219;28;20055;-78
2021/09/01 04:43:53;;;;;;;10.15;4.40;;;;;;;14.05;86.83;102634.72;10455165;28;20059;-78
2021/09/01 04:48:54;;;;;;;14.40;4.63;;;;;;;14.09;85.01;102624.44;10454775;28;20053;-78
2021/09/01 04:53:56;;;;;;;10.38;4.38;;;;;;;13.88;87.64;102630.75;10449995;28;20128;-78
2021/09/01 04:58:57;;;;;;;8.82;4.97;;;;;;;14.00;88.35;102632.84;10447242;28;20045;-78
2021/09/01 05:03:59;;;;;;;11.68;5.00;;;;;;;14.00;87.49;102631.09;10452811;28;20141;-78
2021/09/01 05:09:01;;;;;;;8.88;4.80;;;;;;;13.86;89.92;102632.44;10454714;28;20122;-78
2021/09/01 05:14:02;;;;;;;9.18;4.60;;;;;;;13.92;89.61;102640.41;10454385;28;20052;-78
2021/09/01 05:19:05;;;;;;;8.10;4.57;;;;;;;13.98;89.93;102652.72;10454067;28;20068;-78
2021/09/01 05:24:15;;;;;;;9.35;4.78;;;;;;;13.99;89.59;102641.47;10457129;28;20045;-78
2021/09/01 05:29:24;;;;;;;8.70;4.55;;;;;;;14.05;89.21;102647.75;10451468;28;20079;-78
2021/09/01 05:34:25;;;;;;;11.43;5.13;;;;;;;14.00;89.19;102654.53;10433411;28;20413;-78
2021/09/01 05:39:27;;;;;;;7.88;3.70;;;;;;;14.15;87.98;102651.50;10461129;28;20049;-78
2021/09/01 05:44:29;;;;;;;9.38;5.00;;;;;;;14.08;89.10;102649.56;10451398;28;20072;-78
2021/09/01 05:49:30;;;;;;;11.32;5.70;;;;;;;14.06;90.20;102656.44;10461324;28;20048;-78
2021/09/01 05:54:33;;;;;;;11.32;5.22;;;;;;;14.06;90.29;102641.69;10462758;28;20053;-78
2021/09/01 05:59:53;;;;;;;6.57;4.18;;;;;;;14.04;91.13;102648.59;10441500;28;20432;-77
2021/09/01 06:04:58;;;;;;;10.25;4.63;;;;;;;14.17;87.42;102657.63;10462637;28;20071;-78
2021/09/01 06:10:02;;;;;;;9.82;3.70;;;;;;;14.17;86.75;102657.63;10459933;28;20134;-78
2021/09/01 06:15:04;;;;;;;12.70;4.05;;;;;;;14.24;84.68;102651.78;10442130;28;20056;-78
2021/09/01 06:20:06;;;;;;;8.57;4.40;;;;;;;14.38;88.09;102656.50;10463028;28;20045;-78
2021/09/01 06:25:09;;;;;;;8.93;4.10;;;;;;;14.42;87.76;102659.25;10461048;28;20387;-79
2021/09/01 06:30:11;;;;;;;18.35;4.70;;;;;;;14.41;88.38;102665.28;10459788;28;20049;-79
2021/09/01 06:35:13;;;;;;;13.50;4.72;;;;;;;14.39;88.08;102666.94;10459267;28;20060;-79
2021/09/01 06:40:17;;;;;;;8.90;4.15;;;;;;;14.59;88.17;102680.59;10460531;28;20489;-79
2021/09/01 06:45:18;;;;;;;10.57;4.93;;;;;;;14.59;87.28;102677.97;10459316;28;20048;-79
2021/09/01 06:50:23;;;;;;;13.80;4.93;;;;;;;14.71;88.76;102680.91;10458758;28;20056;-79
2021/09/01 06:55:24;;;;;;;11.32;5.20;;;;;;;14.72;87.98;102682.69;10459662;28;20056;-79
2021/09/01 07:00:26;;;;;;;9.88;5.38;;;;;;;14.84;88.02;102679.53;10459017;28;20049;-79
2021/09/01 07:05:31;;;;;;;14.70;5.75;;;;;;;14.92;87.48;102678.03;10460211;28;20061;-79
2021/09/01 07:10:33;;;;;;;14.02;5.57;;;;;;;14.96;86.72;102684.19;10457964;28;20065;-80
2021/09/01 07:15:34;;;;;;;8.05;5.28;;;;;;;14.99;86.94;102686.88;10458329;28;20053;-79
2021/09/01 07:20:38;;;;;;;14.40;5.70;;;;;;;15.08;85.53;102694.91;10457958;28;20448;-79
2021/09/01 07:25:39;;;;;;;11.48;6.10;;;;;;;15.21;86.49;102690.94;10459477;28;20405;-79
2021/09/01 07:30:41;;;;;;;15.23;5.65;;;;;;;15.29;86.17;102685.06;10458071;28;20131;-79
2021/09/01 07:35:42;;;;;;;11.23;6.22;;;;;;;15.23;85.49;102692.72;10457863;28;20513;-80
2021/09/01 07:40:44;;;;;;;13.15;6.28;;;;;;;15.36;85.47;102694.78;10451356;28;20496;-80
2021/09/01 07:45:47;;;;;;;13.18;6.65;;;;;;;15.41;85.21;102701.84;10439618;28;20052;-80
2021/09/01 07:50:51;;;;;;;17.80;7.32;;;;;;;15.55;83.36;102700.47;10456713;28;20052;-80
2021/09/01 07:55:53;;;;;;;13.85;7.00;;;;;;;15.57;83.87;102714.44;10455933;28;20515;-80
2021/09/01 08:00:55;;;;;;;12.25;6.07;;;;;;;15.58;84.24;102717.06;10454574;28;20068;-80
2021/09/01 08:05:58;;;;;;;17.27;6.93;;;;;;;15.56;82.70;102710.94;10456659;28;20049;-80
2021/09/01 08:10:59;;;;;;;10.18;5.55;;;;;;;15.82;79.78;102713.31;10455861;28;20049;-81
2021/09/01 08:16:01;;;;;;;12.80;6.00;;;;;;;15.90;79.29;102723.09;10455964;28;20554;-79
2021/09/01 08:21:02;;;;;;;14.52;4.97;;;;;;;16.09;77.98;102719.16;10455514;28;20071;-80
2021/09/01 08:26:04;;;;;;;12.95;4.95;;;;;;;16.27;76.12;102723.91;10455323;28;20063;-80
2021/09/01 08:31:05;;;;;;;11.07;4.70;;;;;;;16.28;75.52;102735.22;10457346;28;20126;-80
2021/09/01 08:36:07;;;;;;;12.02;4.55;;;;;;;16.37;74.18;102738.94;10457253;28;20115;-80
2021/09/01 08:41:10;;;;;;;11.18;4.57;;;;;;;16.44;73.79;102738.22;10455982;28;20481;-80
2021/09/01 08:46:12;;;;;;;11.73;5.05;;;;;;;16.53;72.99;102739.28;10455717;28;20056;-81
2021/09/01 08:51:13;;;;;;;9.88;4.45;;;;;;;16.66;74.51;102736.03;10455285;28;20095;-79
2021/09/01 08:56:15;;;;;;;14.40;4.75;;;;;;;16.64;75.15;102735.16;10447294;28;20461;-79
2021/09/01 09:01:49;;;;;;;8.23;4.07;;;;;;;16.61;73.77;102741.19;10454888;28;20045;-79
2021/09/01 09:06:55;;;;;;;11.68;4.03;;;;;;;16.58;73.33;102741.13;10442538;28;20110;-79
2021/09/01 09:11:59;;;;;;;8.23;4.10;;;;;;;16.85;75.92;102742.56;10458335;28;20493;-80
2021/09/01 09:17:19;;;;;;;7.97;4.32;;;;;;;17.03;72.41;102740.31;10465371;28;20052;-79
2021/09/01 09:22:30;;;;;;;10.27;4.50;;;;;;;16.89;72.34;102736.53;10468865;28;20056;-80
2021/09/01 09:27:40;;;;;;;8.07;3.88;;;;;;;17.02;70.24;102740.25;10461902;28;20068;-79
2021/09/01 09:33:05;;;;;;;11.48;4.30;;;;;;;17.28;73.23;102735.50;10461918;28;20052;-79
2021/09/01 09:38:06;;;;;;;9.45;4.10;;;;;;;17.28;69.02;102738.13;10470706;28;20048;-79
2021/09/01 09:43:16;;;;;;;6.57;3.90;;;;;;;17.21;70.20;102740.63;10462607;28;20053;-80
2021/09/01 09:48:30;;;;;;;9.35;3.53;;;;;;;17.39;67.97;102734.84;10460816;28;20537;-79
2021/09/01 09:53:36;;;;;;;8.20;3.67;;;;;;;17.33;68.62;102733.88;10460195;28;20056;-80
2021/09/01 09:58:51;;;;;;;10.73;4.25;;;;;;;17.30;69.58;102739.03;10461343;28;20049;-80
2021/09/01 10:03:54;;;;;;;13.80;4.10;;;;;;;17.04;71.03;102746.41;10442312;28;20045;-80
2021/09/01 10:08:57;;;;;;;16.70;4.32;;;;;;;17.15;70.08;102748.38;10461583;28;20049;-80
2021/09/01 10:13:59;;;;;;;8.68;4.15;;;;;;;17.10;72.48;102746.53;10459533;28;20049;-80
2021/09/01 10:19:09;;;;;;;11.07;3.92;;;;;;;17.39;73.06;102744.44;10458422;28;20056;-80
2021/09/01 10:24:23;;;;;;;5.70;3.25;;;;;;;17.50;73.05;102742.88;10458130;28;20053;-80
2021/09/01 10:29:46;;;;;;;8.15;3.45;;;;;;;17.41;69.64;102735.75;10459212;28;20056;-80
2021/09/01 10:34:48;;;;;;;10.45;3.50;;;;;;;17.49;71.28;102730.66;10442317;28;20053;-80
2021/09/01 10:39:50;;;;;;;9.25;4.65;;;;;;;17.50;71.26;102727.19;10460107;28;20048;-81
2021/09/01 10:44:51;;;;;;;7.00;3.42;;;;;;;18.00;70.25;102711.41;10458086;28;20049;-79
2021/09/01 10:49:59;;;;;;;8.15;3.83;;;;;;;18.04;69.74;102720.16;10457668;28;20048;-79
2021/09/01 10:55:01;;;;;;;6.88;3.67;;;;;;;18.16;69.97;102721.25;10455101;28;20056;-80
2021/09/01 11:00:14;;;;;;;10.85;3.92;;;;;;;17.80;68.30;102710.22;10457557;28;20048;-80
2021/09/01 11:05:22;;;;;;;14.10;4.78;;;;;;;18.06;66.78;102694.91;10440247;28;20060;-81
2021/09/01 11:10:26;;;;;;;7.90;3.70;;;;;;;18.12;64.65;102702.84;10455463;28;20049;-81
2021/09/01 11:15:45;;;;;;;6.53;3.08;;;;;;;18.15;59.65;102701.16;10456629;28;20067;-81
2021/09/01 11:20:54;;;;;;;7.78;2.90;;;;;;;18.45;61.75;102695.41;10467778;28;20045;-81
2021/09/01 11:25:55;;;;;;;7.28;2.72;;;;;;;18.62;64.33;102690.38;10449976;28;20041;-80
2021/09/01 11:30:59;;;;;;;9.93;2.67;;;;;;;18.30;64.08;102695.22;10455865;28;20489;-81
2021/09/01 11:36:01;;;;;;;7.28;2.88;;;;;;;18.02;65.49;102704.44;10454420;28;20060;-79
2021/09/01 11:41:03;;;;;;;8.68;2.88;;;;;;;18.06;65.41;102708.00;10456171;28;20127;-78
2021/09/01 11:46:04;;;;;;;7.60;3.42;;;;;;;18.15;67.94;102703.78;10456188;28;20366;-78
2021/09/01 11:51:06;;;;;;;6.50;2.35;;;;;;;17.97;67.21;102703.50;10454347;28;20045;-78
2021/09/01 11:56:29;;;;;;;6.50;3.03;;;;;;;18.36;66.44;102697.03;10450883;28;20057;-78
2021/09/01 12:01:35;;;;;;;4.97;2.42;;;;;;;18.23;66.85;102703.84;10454700;28;20052;-78
2021/09/01 12:06:42;;;;;;;8.57;2.55;;;;;;;18.43;64.40;102704.97;10429844;28;20056;-78
2021/09/01 12:11:53;;;;;;;7.38;2.80;;;;;;;18.64;62.97;102695.63;10452201;28;20052;-78
2021/09/01 12:17:14;;;;;;;9.15;2.90;;;;;;;18.48;64.69;102695.44;10450441;28;20045;-77
2021/09/01 12:22:30;;;;;;;5.97;3.05;;;;;;;18.82;63.48;102693.22;10452561;28;20048;-78
2021/09/01 12:27:40;;;;;;;6.35;2.72;;;;;;;18.69;64.86;102697.47;10453096;28;20143;-78
2021/09/01 12:32:42;;;;;;;5.20;3.05;;;;;;;18.57;65.41;102701.66;10453519;28;20063;-77
2021/09/01 12:37:43;;;;;;;5.75;2.97;;;;;;;18.62;67.40;102700.84;10453414;28;20055;-77
2021/09/01 12:42:45;;;;;;;5.80;2.83;;;;;;;18.50;64.89;102690.22;10453202;28;20071;-78
2021/09/01 12:47:54;;;;;;;8.75;2.67;;;;;;;18.42;65.52;102690.13;10453818;28;20045;-77
2021/09/01 12:52:57;;;;;;;6.15;3.28;;;;;;;18.37;67.08;102691.78;10453009;28;20501;-76
2021/09/01 12:57:59;;;;;;;5.43;2.45;;;;;;;18.56;68.03;102690.28;10454592;28;20049;-76
2021/09/01 13:03:01;;;;;;;9.65;3.67;;;;;;;18.41;68.85;102684.88;10454628;28;20120;-76
2021/09/01 13:08:03;;;;;;;7.63;4.00;;;;;;;18.10;69.20;102675.75;10453772;28;20045;-75
2021/09/01 13:13:05;;;;;;;9.57;3.67;;;;;;;18.44;67.95;102664.81;10444010;28;20045;-76
2021/09/01 13:18:06;;;;;;;6.50;3.25;;;;;;;18.34;68.85;102677.78;10454187;28;20060;-76
2021/09/01 13:23:08;;;;;;;9.20;3.13;;;;;;;18.29;70.97;102677.72;10451723;28;20049;-75
2021/09/01 13:28:09;;;;;;;4.43;2.88;;;;;;;18.45;66.88;102668.31;10453724;28;20063;-76
2021/09/01 13:33:14;;;;;;;10.52;3.60;;;;;;;18.35;68.02;102672.56;10452244;28;20081;-76
2021/09/01 13:38:15;;;;;;;7.70;3.90;;;;;;;18.47;67.54;102664.84;10451632;28;20056;-75
2021/09/01 13:43:17;;;;;;;6.70;3.50;;;;;;;18.41;66.88;102674.38;10453171;28;20056;-76
2021/09/01 13:48:18;;;;;;;6.68;3.38;;;;;;;18.34;68.38;102676.06;10453125;28;20053;-76
2021/09/01 13:53:21;;;;;;;8.32;3.40;;;;;;;18.14;67.31;102675.78;10453844;28;20095;-76
2021/09/01 13:58:22;;;;;;;2.95;2.22;;;;;;;18.09;68.78;102674.84;10447952;28;20071;-76
2021/09/01 14:03:29;;;;;;;5.28;2.55;;;;;;;18.31;67.54;102673.38;10459826;28;20052;-76
2021/09/01 14:08:31;;;;;;;9.57;2.50;;;;;;;18.15;66.97;102672.34;10456456;28;20048;-76
2021/09/01 14:13:32;;;;;;;5.68;2.67;;;;;;;18.24;67.85;102672.44;10454655;28;20057;-78
2021/09/01 14:18:34;;;;;;;7.10;3.08;;;;;;;18.51;68.81;102674.50;10468767;28;20063;-77
2021/09/01 14:23:35;;;;;;;6.93;2.80;;;;;;;18.26;69.14;102672.44;10459187;28;20126;-77
2021/09/01 14:28:38;;;;;;;8.48;2.60;;;;;;;18.32;69.23;102669.00;10458812;28;20052;-79
2021/09/01 14:33:42;;;;;;;5.25;2.72;;;;;;;18.36;68.39;102662.97;10461133;28;20080;-77
2021/09/01 14:38:46;;;;;;;5.22;2.17;;;;;;;18.19;68.18;102660.13;10459228;28;20406;-77
2021/09/01 14:43:48;;;;;;;4.47;2.60;;;;;;;18.41;69.14;102661.28;10457884;28;20064;-78
2021/09/01 14:48:49;;;;;;;3.83;2.13;;;;;;;18.07;67.74;102657.34;10457836;28;20059;-78
2021/09/01 14:53:51;;;;;;;3.35;2.53;;;;;;;18.17;67.23;102667.09;10458540;28;20064;-78
2021/09/01 14:58:52;;;;;;;5.72;2.95;;;;;;;18.24;67.88;102656.72;10458525;28;20045;-75
2021/09/01 15:03:54;;;;;;;4.85;2.33;;;;;;;18.21;69.67;102651.44;10457630;28;20053;-80
2021/09/01 15:08:55;;;;;;;3.42;2.03;;;;;;;18.15;67.62;102648.75;10452317;28;20048;-79
2021/09/01 15:13:58;;;;;;;5.80;2.00;;;;;;;18.16;67.87;102645.25;10456545;28;20400;-79
2021/09/01 15:19:00;;;;;;;10.18;3.13;;;;;;;18.00;69.17;102651.16;10457161;28;20085;-79
2021/09/01 15:24:02;;;;;;;3.58;2.60;;;;;;;18.01;68.58;102648.56;10455719;28;20074;-79
2021/09/01 15:29:03;;;;;;;6.63;2.58;;;;;;;18.39;68.52;102649.91;10444068;28;20048;-79
2021/09/01 15:34:05;;;;;;;6.05;2.60;;;;;;;18.10;68.70;102631.22;10458133;28;20053;-80
2021/09/01 15:39:07;;;;;;;6.38;2.95;;;;;;;18.18;72.38;102629.56;10449901;28;20045;-79
2021/09/01 15:44:12;;;;;;;7.30;2.42;;;;;;;18.14;71.38;102626.00;10454909;28;20048;-79
2021/09/01 15:49:14;;;;;;;;;;;;;;;18.18;71.54;102625.19;10456122;28;20323;-78
2021/09/01 15:54:16;;;;;;;9.23;2.97;;;;;;;18.17;71.55;102615.56;10454891;28;19953;-79
2021/09/01 15:59:21;;;;;;;7.43;3.30;;;;;;;18.14;70.26;102612.03;10461086;28;20095;-77
2021/09/01 16:04:25;;;;;;;4.57;2.28;;;;;;;18.13;71.82;102618.13;10457725;28;20052;-78
2021/09/01 16:09:26;;;;;;;6.22;2.50;;;;;;;18.18;71.46;102613.84;10454939;28;20049;-79
2021/09/01 16:14:50;;;;;;;5.97;2.50;;;;;;;18.13;70.70;102610.28;10441372;28;20424;-79
2021/09/01 16:20:01;;;;;;;5.43;3.10;;;;;;;18.16;71.58;102600.72;10427692;28;20049;-78
2021/09/01 16:25:03;;;;;;;5.55;2.30;;;;;;;18.12;72.51;102598.03;10454700;28;20052;-78
2021/09/01 16:30:06;;;;;;;4.30;2.70;;;;;;;18.13;72.64;102598.06;10454785;28;20049;-78
2021/09/01 16:35:11;;;;;;;4.30;2.42;;;;;;;18.05;74.38;102606.69;10454873;28;20523;-78
2021/09/01 16:40:14;;;;;;;4.03;2.53;;;;;;;17.78;74.96;102601.97;10453821;28;20049;-78
2021/09/01 16:45:17;;;;;;;4.72;2.35;;;;;;;17.77;74.97;102605.47;10452834;28;20049;-77
2021/09/01 16:50:20;;;;;;;8.88;3.05;;;;;;;17.62;76.72;102613.94;10461464;28;20477;-78
2021/09/01 16:55:29;;;;;;;9.00;2.90;;;;;;;17.58;75.90;102606.88;10450795;28;20065;-79
2021/09/01 17:00:43;;;;;;;9.43;2.80;;;;;;;17.48;76.09;102614.63;10430498;28;20114;-78
2021/09/01 17:05:45;;;;;;;4.82;2.35;;;;;;;17.31;76.18;102597.78;10451295;28;20084;-77
2021/09/01 17:10:50;;;;;;;9.63;3.55;;;;;;;17.28;78.67;102609.94;10448460;28;20068;-77
2021/09/01 17:15:55;;;;;;;6.77;2.93;;;;;;;17.27;77.60;102600.34;10449807;28;20056;-78
2021/09/01 17:20:57;;;;;;;8.43;3.20;;;;;;;17.19;78.46;102610.69;10453390;28;20064;-77
2021/09/01 17:26:03;;;;;;;6.55;3.28;;;;;;;17.23;78.13;102607.25;10452083;28;20060;-77
2021/09/01 17:31:08;;;;;;;4.55;2.70;;;;;;;17.19;79.22;102613.31;10453884;28;20052;-77
2021/09/01 17:36:10;;;;;;;4.78;2.45;;;;;;;17.16;80.71;102611.50;10447917;28;20134;-78
2021/09/01 17:41:19;;;;;;;8.73;2.58;;;;;;;17.00;80.35;102616.44;10453224;28;20049;-78
2021/09/01 17:46:26;;;;;;;7.22;2.95;;;;;;;17.00;82.29;102619.94;10460962;28;20049;-78
2021/09/01 17:51:32;;;;;;;9.43;3.33;;;;;;;16.87;83.13;102615.38;10459096;28;20477;-77
2021/09/01 17:56:33;;;;;;;9.98;3.30;;;;;;;16.83;82.56;102626.63;10456594;28;20088;-78
2021/09/01 18:01:35;;;;;;;10.25;3.88;;;;;;;16.81;81.79;102617.88;10448650;28;20056;-78
2021/09/01 18:06:40;;;;;;;5.30;3.40;;;;;;;16.71;82.34;102619.44;10458120;28;20049;-78
2021/09/01 18:11:42;;;;;;;7.00;3.97;;;;;;;16.80;83.46;102627.47;10459670;28;20053;-74
2021/09/01 18:16:44;;;;;;;10.90;4.55;;;;;;;16.70;83.83;102630.72;10460438;28;20087;-73
2021/09/01 18:21:46;;;;;;;9.35;4.13;;;;;;;16.54;84.45;102624.31;10464553;28;20091;-73
2021/09/01 18:26:48;;;;;;;6.05;4.03;;;;;;;16.53;85.61;102633.00;10458754;28;20055;-73
2021/09/01 18:31:49;;;;;;;9.63;4.15;;;;;;;16.49;84.83;102633.78;10457559;28;20037;-73
2021/09/01 18:36:51;;;;;;;8.05;4.50;;;;;;;16.46;86.00;102643.31;10457763;28;20061;-73
2021/09/01 18:41:56;;;;;;;9.45;5.07;;;;;;;16.42;86.54;102650.22;10457249;28;20079;-74
2021/09/01 18:46:58;;;;;;;9.88;4.63;;;;;;;16.42;85.28;102653.69;10457029;28;20053;-73
2021/09/01 18:52:00;;;;;;;8.88;5.47;;;;;;;16.27;85.94;102650.78;10457805;28;20044;-73
2021/09/01 18:57:04;;;;;;;9.70;5.53;;;;;;;16.15;87.71;102660.97;10454010;28;20048;-73
2021/09/01 19:02:09;;;;;;;7.93;4.53;;;;;;;16.22;87.99;102659.34;10454294;28;20401;-73
2021/09/01 19:07:30;;;;;;;9.88;6.10;;;;;;;16.10;88.71;102660.88;10456880;28;20846;-73
2021/09/01 19:12:34;;;;;;;14.60;6.13;;;;;;;16.05;88.50;102667.75;10457393;28;20049;-73
2021/09/01 19:17:39;;;;;;;8.70;6.30;;;;;;;16.05;88.50;102667.75;10459382;28;20079;-73
2021/09/01 19:22:41;;;;;;;10.50;6.03;;;;;;;16.11;88.17;102665.25;10448300;28;20044;-73
2021/09/01 19:27:44;;;;;;;8.65;4.82;;;;;;;16.09;88.12;102668.69;10454469;28;20049;-74
2021/09/01 19:32:49;;;;;;;9.05;6.85;;;;;;;16.04;88.53;102670.31;10455646;28;20361;-74
2021/09/01 19:37:53;;;;;;;8.35;6.25;;;;;;;15.97;88.58;102671.03;10453519;28;20049;-74
2021/09/01 19:42:54;;;;;;;11.68;7.20;;;;;;;15.92;88.47;102665.69;10452126;28;20052;-75
2021/09/01 19:47:56;;;;;;;9.15;6.60;;;;;;;16.02;88.96;102662.44;10453623;28;20060;-73
2021/09/01 19:52:58;;;;;;;11.60;7.80;;;;;;;15.84;89.94;102662.94;10456116;28;20098;-73
2021/09/01 19:58:00;;;;;;;12.48;7.80;;;;;;;15.90;88.83;102665.66;10455178;28;20044;-73
2021/09/01 20:03:04;;;;;;;14.40;7.32;;;;;;;15.82;89.42;102667.22;10454614;28;20497;-73
2021/09/01 20:08:06;;;;;;;9.10;7.03;;;;;;;15.82;90.14;102668.94;10446235;28;20052;-74
2021/09/01 20:13:08;;;;;;;12.68;7.55;;;;;;;15.70;91.74;102671.28;10452559;28;20041;-72
2021/09/01 20:18:10;;;;;;;14.65;8.65;;;;;;;15.75;90.23;102680.97;10466937;28;20059;-73
2021/09/01 20:23:12;;;;;;;10.73;7.63;;;;;;;15.71;90.19;102678.25;10455776;28;20068;-73
2021/09/01 20:28:14;;;;;;;12.10;7.72;;;;;;;15.75;90.58;102680.09;10454135;28;20053;-73
2021/09/01 20:33:16;;;;;;;13.98;9.15;;;;;;;15.72;91.11;102680.91;10453417;28;20068;-74
2021/09/01 20:38:17;;;;;;;10.98;7.68;;;;;;;15.68;91.72;102668.63;10453948;28;20053;-72
2021/09/01 20:43:23;;;;;;;14.40;8.05;;;;;;;15.69;92.32;102679.94;10454800;28;20049;-73
2021/09/01 20:48:30;;;;;;;9.63;7.82;;;;;;;15.62;92.13;102679.81;10455230;28;20059;-74
2021/09/01 20:53:31;;;;;;;14.15;8.43;;;;;;;15.64;92.21;102672.88;10452962;28;20060;-73
2021/09/01 20:58:34;;;;;;;12.95;8.55;;;;;;;15.55;92.23;102674.38;10453214;28;20500;-72
2021/09/01 21:03:35;;;;;;;19.73;8.88;;;;;;;15.53;93.23;102673.44;10453261;28;20053;-72
2021/09/01 21:08:38;;;;;;;12.52;8.07;;;;;;;15.60;93.58;102667.56;10458652;28;20107;-73
2021/09/01 21:13:39;;;;;;;15.98;8.60;;;;;;;15.52;94.12;102680.41;10461523;28;20091;-73
2021/09/01 21:18:43;;;;;;;19.33;8.90;;;;;;;15.50;93.95;102670.78;10474859;28;20413;-73
2021/09/01 21:23:45;;;;;;;15.02;9.43;;;;;;;15.47;94.24;102673.31;10460623;28;20053;-73
2021/09/01 21:28:51;;;;;;;12.80;8.00;;;;;;;15.46;95.50;102668.94;10462591;28;20045;-73
2021/09/01 21:33:53;;;;;;;14.35;10.10;;;;;;;15.44;93.69;102675.84;10460982;28;20063;-73
2021/09/01 21:38:56;;;;;;;15.57;10.02;;;;;;;15.51;94.21;102673.41;10461907;28;20127;-73
2021/09/01 21:43:59;;;;;;;16.75;10.18;;;;;;;15.42;94.49;102675.78;10462050;28;20049;-73
2021/09/01 21:49:01;;;;;;;14.38;9.68;;;;;;;15.43;94.47;102659.31;10460304;28;20049;-73
2021/09/01 21:54:05;;;;;;;13.25;9.02;;;;;;;15.42;95.56;102664.47;10459944;28;20064;-73
2021/09/01 21:59:06;;;;;;;15.10;10.52;;;;;;;15.31;95.72;102672.91;10460977;28;20053;-74
2021/09/01 22:04:08;;;;;;;16.13;10.00;;;;;;;15.33;95.42;102668.66;10460770;28;20045;-73
2021/09/01 22:09:10;;;;;;;13.00;10.32;;;;;;;15.35;96.54;102668.69;10461011;28;20049;-73
2021/09/01 22:14:12;;;;;;;12.45;10.05;;;;;;;15.24;95.97;102668.41;10460372;28;20041;-73
2021/09/01 22:19:13;;;;;;;16.70;10.85;;;;;;;15.25;97.27;102670.16;10471263;28;20053;-73
2021/09/01 22:24:15;;;;;;;19.83;10.65;;;;;;;15.33;96.73;102670.38;10459034;28;20405;-72
2021/09/01 22:29:16;;;;;;;14.80;10.15;;;;;;;15.29;96.44;102671.13;10459371;28;20059;-73
2021/09/01 22:34:18;;;;;;;18.20;9.70;;;;;;;15.25;97.34;102670.16;10459465;28;20417;-73
2021/09/01 22:39:20;;;;;;;14.60;10.02;;;;;;;15.19;96.96;102680.44;10458324;28;20048;-72
2021/09/01 22:44:21;;;;;;;15.68;10.52;;;;;;;15.22;97.96;102674.44;10458133;28;20055;-72
2021/09/01 22:49:23;;;;;;;14.65;10.07;;;;;;;15.23;97.82;102668.38;10458247;28;20106;-72
2021/09/01 22:54:25;;;;;;;15.80;10.43;;;;;;;15.19;98.02;102663.91;10458664;28;20056;-72
2021/09/01 22:59:27;;;;;;;15.93;9.90;;;;;;;15.15;97.63;102664.72;10457827;28;20064;-72
2021/09/01 23:04:28;;;;;;;12.65;9.93;;;;;;;15.17;98.05;102669.09;10458101;28;20099;-72